sensor_id;sensor_type;location;lat;lon;timestamp;P1;durP1;ratioP1;P2;durP2;ratioP2
35877;SDS011;21982;49.804;24.072;2023-04-07T00:01:18;170.35;;;24.20;;
35877;SDS011;21982;49.804;24.072;2023-04-07T00:03:45;153.82;;;22.88;;
35877;SDS011;21982;49.804;24.072;2023-04-07T00:06:11;84.50;;;18.02;;
35877;SDS011;21982;49.804;24.072;2023-04-07T00:08:36;129.50;;;20.10;;
35877;SDS011;21982;49.804;24.072;2023-04-07T00:11:02;150.32;;;21.42;;
35877;SDS011;21982;49.804;24.072;2023-04-07T00:13:27;144.32;;;23.27;;
35877;SDS011;21982;49.804;24.072;2023-04-07T00:15:52;121.40;;;19.23;;
35877;SDS011;21982;49.804;24.072;2023-04-07T00:18:18;97.05;;;19.60;;
35877;SDS011;21982;49.804;24.072;2023-04-07T00:20:43;181.50;;;24.45;;
35877;SDS011;21982;49.804;24.072;2023-04-07T00:23:09;156.43;;;25.67;;
35877;SDS011;21982;49.804;24.072;2023-04-07T00:25:34;133.32;;;23.13;;
35877;SDS011;21982;49.804;24.072;2023-04-07T00:27:59;147.02;;;23.45;;
35877;SDS011;21982;49.804;24.072;2023-04-07T00:30:25;154.38;;;23.75;;
35877;SDS011;21982;49.804;24.072;2023-04-07T00:32:50;112.68;;;22.63;;
35877;SDS011;21982;49.804;24.072;2023-04-07T00:35:16;137.40;;;22.92;;
35877;SDS011;21982;49.804;24.072;2023-04-07T00:37:41;123.90;;;21.58;;
35877;SDS011;21982;49.804;24.072;2023-04-07T00:40:07;136.25;;;21.27;;
35877;SDS011;21982;49.804;24.072;2023-04-07T00:42:33;147.40;;;20.13;;
35877;SDS011;21982;49.804;24.072;2023-04-07T00:44:59;143.73;;;16.05;;
35877;SDS011;21982;49.804;24.072;2023-04-07T00:47:25;171.65;;;18.00;;
35877;SDS011;21982;49.804;24.072;2023-04-07T00:49:50;171.70;;;18.58;;
35877;SDS011;21982;49.804;24.072;2023-04-07T00:52:16;217.93;;;19.00;;
35877;SDS011;21982;49.804;24.072;2023-04-07T00:54:42;127.47;;;16.52;;
35877;SDS011;21982;49.804;24.072;2023-04-07T00:57:10;158.25;;;19.70;;
35877;SDS011;21982;49.804;24.072;2023-04-07T00:59:36;198.93;;;28.45;;
35877;SDS011;21982;49.804;24.072;2023-04-07T01:02:22;181.40;;;20.52;;
35877;SDS011;21982;49.804;24.072;2023-04-07T01:05:11;152.23;;;19.85;;
35877;SDS011;21982;49.804;24.072;2023-04-07T01:11:26;146.73;;;19.25;;
35877;SDS011;21982;49.804;24.072;2023-04-07T01:13:26;167.93;;;24.17;;
35877;SDS011;21982;49.804;24.072;2023-04-07T01:15:53;105.38;;;20.50;;
35877;SDS011;21982;49.804;24.072;2023-04-07T01:18:23;143.55;;;24.55;;
35877;SDS011;21982;49.804;24.072;2023-04-07T01:20:54;143.63;;;26.48;;
35877;SDS011;21982;49.804;24.072;2023-04-07T01:26:28;90.22;;;18.15;;
35877;SDS011;21982;49.804;24.072;2023-04-07T01:28:59;216.75;;;26.02;;
35877;SDS011;21982;49.804;24.072;2023-04-07T01:31:36;134.57;;;18.88;;
35877;SDS011;21982;49.804;24.072;2023-04-07T01:34:04;91.53;;;20.45;;
35877;SDS011;21982;49.804;24.072;2023-04-07T01:36:33;153.30;;;20.73;;
35877;SDS011;21982;49.804;24.072;2023-04-07T01:38:59;73.30;;;17.75;;
35877;SDS011;21982;49.804;24.072;2023-04-07T01:41:26;95.80;;;20.52;;
35877;SDS011;21982;49.804;24.072;2023-04-07T01:43:52;97.82;;;19.17;;
35877;SDS011;21982;49.804;24.072;2023-04-07T01:46:20;121.97;;;20.00;;
35877;SDS011;21982;49.804;24.072;2023-04-07T01:48:47;94.28;;;19.20;;
35877;SDS011;21982;49.804;24.072;2023-04-07T01:51:15;92.88;;;18.85;;
35877;SDS011;21982;49.804;24.072;2023-04-07T01:53:43;178.20;;;24.63;;
35877;SDS011;21982;49.804;24.072;2023-04-07T01:56:09;81.82;;;15.02;;
35877;SDS011;21982;49.804;24.072;2023-04-07T01:58:36;135.23;;;18.08;;
35877;SDS011;21982;49.804;24.072;2023-04-07T02:01:01;118.53;;;17.23;;
35877;SDS011;21982;49.804;24.072;2023-04-07T02:03:29;109.45;;;18.38;;
35877;SDS011;21982;49.804;24.072;2023-04-07T02:06:01;114.03;;;16.63;;
35877;SDS011;21982;49.804;24.072;2023-04-07T02:08:33;113.72;;;16.65;;
35877;SDS011;21982;49.804;24.072;2023-04-07T02:11:05;136.15;;;17.75;;
35877;SDS011;21982;49.804;24.072;2023-04-07T02:13:32;138.18;;;18.52;;
35877;SDS011;21982;49.804;24.072;2023-04-07T02:15:58;174.02;;;19.83;;
35877;SDS011;21982;49.804;24.072;2023-04-07T02:18:26;183.65;;;21.35;;
35877;SDS011;21982;49.804;24.072;2023-04-07T02:20:54;123.70;;;15.75;;
35877;SDS011;21982;49.804;24.072;2023-04-07T02:23:22;122.15;;;15.95;;
35877;SDS011;21982;49.804;24.072;2023-04-07T02:25:48;99.32;;;14.73;;
35877;SDS011;21982;49.804;24.072;2023-04-07T02:28:13;169.45;;;18.40;;
35877;SDS011;21982;49.804;24.072;2023-04-07T02:30:38;145.02;;;17.15;;
35877;SDS011;21982;49.804;24.072;2023-04-07T02:33:04;161.27;;;21.90;;
35877;SDS011;21982;49.804;24.072;2023-04-07T02:35:31;153.82;;;18.08;;
35877;SDS011;21982;49.804;24.072;2023-04-07T02:37:56;175.93;;;19.88;;
35877;SDS011;21982;49.804;24.072;2023-04-07T02:40:21;189.93;;;19.25;;
35877;SDS011;21982;49.804;24.072;2023-04-07T02:42:47;126.65;;;16.83;;
35877;SDS011;21982;49.804;24.072;2023-04-07T02:45:12;121.53;;;16.10;;
35877;SDS011;21982;49.804;24.072;2023-04-07T02:47:39;152.63;;;18.60;;
35877;SDS011;21982;49.804;24.072;2023-04-07T02:50:06;155.32;;;18.80;;
35877;SDS011;21982;49.804;24.072;2023-04-07T02:52:31;150.52;;;18.17;;
35877;SDS011;21982;49.804;24.072;2023-04-07T02:54:57;121.38;;;16.83;;
35877;SDS011;21982;49.804;24.072;2023-04-07T02:57:22;179.60;;;20.77;;
35877;SDS011;21982;49.804;24.072;2023-04-07T02:59:47;245.77;;;27.50;;
35877;SDS011;21982;49.804;24.072;2023-04-07T03:02:13;180.23;;;20.13;;
35877;SDS011;21982;49.804;24.072;2023-04-07T03:04:38;149.98;;;17.33;;
35877;SDS011;21982;49.804;24.072;2023-04-07T03:07:03;164.93;;;18.15;;
35877;SDS011;21982;49.804;24.072;2023-04-07T03:09:29;151.32;;;19.40;;
35877;SDS011;21982;49.804;24.072;2023-04-07T03:11:54;153.63;;;17.17;;
35877;SDS011;21982;49.804;24.072;2023-04-07T03:14:20;180.05;;;19.77;;
35877;SDS011;21982;49.804;24.072;2023-04-07T03:16:45;252.90;;;24.15;;
35877;SDS011;21982;49.804;24.072;2023-04-07T03:19:12;240.32;;;25.38;;
35877;SDS011;21982;49.804;24.072;2023-04-07T03:21:38;194.38;;;22.20;;
35877;SDS011;21982;49.804;24.072;2023-04-07T03:24:08;196.18;;;21.67;;
35877;SDS011;21982;49.804;24.072;2023-04-07T03:26:33;176.57;;;19.05;;
35877;SDS011;21982;49.804;24.072;2023-04-07T03:28:59;170.13;;;21.48;;
35877;SDS011;21982;49.804;24.072;2023-04-07T03:31:25;180.80;;;20.00;;
35877;SDS011;21982;49.804;24.072;2023-04-07T03:33:51;169.90;;;18.52;;
35877;SDS011;21982;49.804;24.072;2023-04-07T03:36:16;245.30;;;22.52;;
35877;SDS011;21982;49.804;24.072;2023-04-07T03:38:45;141.32;;;16.60;;
35877;SDS011;21982;49.804;24.072;2023-04-07T03:41:11;207.48;;;20.13;;
35877;SDS011;21982;49.804;24.072;2023-04-07T03:43:37;269.17;;;22.83;;
35877;SDS011;21982;49.804;24.072;2023-04-07T03:46:02;177.77;;;17.33;;
35877;SDS011;21982;49.804;24.072;2023-04-07T03:48:27;218.75;;;18.10;;
35877;SDS011;21982;49.804;24.072;2023-04-07T03:50:53;194.50;;;20.08;;
35877;SDS011;21982;49.804;24.072;2023-04-07T03:53:18;152.50;;;17.08;;
35877;SDS011;21982;49.804;24.072;2023-04-07T03:55:44;181.63;;;20.30;;
35877;SDS011;21982;49.804;24.072;2023-04-07T03:58:10;194.40;;;19.88;;
35877;SDS011;21982;49.804;24.072;2023-04-07T04:00:35;207.48;;;22.98;;
35877;SDS011;21982;49.804;24.072;2023-04-07T04:03:01;233.63;;;24.15;;
35877;SDS011;21982;49.804;24.072;2023-04-07T04:05:27;273.67;;;26.67;;
35877;SDS011;21982;49.804;24.072;2023-04-07T04:07:52;211.10;;;20.02;;
35877;SDS011;21982;49.804;24.072;2023-04-07T04:10:18;203.05;;;20.67;;
35877;SDS011;21982;49.804;24.072;2023-04-07T04:12:45;263.70;;;22.25;;
35877;SDS011;21982;49.804;24.072;2023-04-07T04:15:11;267.88;;;25.08;;
35877;SDS011;21982;49.804;24.072;2023-04-07T04:17:36;289.10;;;27.95;;
35877;SDS011;21982;49.804;24.072;2023-04-07T04:20:02;200.60;;;20.83;;
35877;SDS011;21982;49.804;24.072;2023-04-07T04:22:29;272.83;;;27.50;;
35877;SDS011;21982;49.804;24.072;2023-04-07T04:24:54;238.77;;;22.58;;
35877;SDS011;21982;49.804;24.072;2023-04-07T04:27:20;225.13;;;21.75;;
35877;SDS011;21982;49.804;24.072;2023-04-07T04:29:45;253.13;;;22.77;;
35877;SDS011;21982;49.804;24.072;2023-04-07T04:32:11;213.23;;;18.98;;
35877;SDS011;21982;49.804;24.072;2023-04-07T04:34:36;262.48;;;23.92;;
35877;SDS011;21982;49.804;24.072;2023-04-07T04:37:01;266.13;;;25.98;;
35877;SDS011;21982;49.804;24.072;2023-04-07T04:39:27;236.85;;;23.35;;
35877;SDS011;21982;49.804;24.072;2023-04-07T04:41:52;200.32;;;20.40;;
35877;SDS011;21982;49.804;24.072;2023-04-07T04:44:17;210.27;;;21.20;;
35877;SDS011;21982;49.804;24.072;2023-04-07T04:46:43;206.07;;;19.50;;
35877;SDS011;21982;49.804;24.072;2023-04-07T04:49:08;298.73;;;28.55;;
35877;SDS011;21982;49.804;24.072;2023-04-07T04:51:33;258.50;;;23.63;;
35877;SDS011;21982;49.804;24.072;2023-04-07T04:53:59;197.50;;;18.73;;
35877;SDS011;21982;49.804;24.072;2023-04-07T04:56:24;252.85;;;22.05;;
35877;SDS011;21982;49.804;24.072;2023-04-07T04:58:56;195.90;;;20.20;;
35877;SDS011;21982;49.804;24.072;2023-04-07T05:01:22;253.10;;;21.50;;
35877;SDS011;21982;49.804;24.072;2023-04-07T05:03:49;160.68;;;20.05;;
35877;SDS011;21982;49.804;24.072;2023-04-07T05:06:15;128.45;;;17.80;;
35877;SDS011;21982;49.804;24.072;2023-04-07T05:08:40;202.43;;;22.15;;
35877;SDS011;21982;49.804;24.072;2023-04-07T05:11:05;236.32;;;22.58;;
35877;SDS011;21982;49.804;24.072;2023-04-07T05:13:31;286.17;;;26.60;;
35877;SDS011;21982;49.804;24.072;2023-04-07T05:15:56;185.48;;;20.15;;
35877;SDS011;21982;49.804;24.072;2023-04-07T05:18:26;164.50;;;18.67;;
35877;SDS011;21982;49.804;24.072;2023-04-07T05:20:51;188.85;;;20.88;;
35877;SDS011;21982;49.804;24.072;2023-04-07T05:23:17;232.25;;;21.08;;
35877;SDS011;21982;49.804;24.072;2023-04-07T05:25:42;200.18;;;23.23;;
35877;SDS011;21982;49.804;24.072;2023-04-07T05:28:07;192.85;;;21.13;;
35877;SDS011;21982;49.804;24.072;2023-04-07T05:30:33;189.25;;;17.95;;
35877;SDS011;21982;49.804;24.072;2023-04-07T05:33:01;193.25;;;18.88;;
35877;SDS011;21982;49.804;24.072;2023-04-07T05:35:27;162.13;;;20.90;;
35877;SDS011;21982;49.804;24.072;2023-04-07T05:37:52;294.27;;;30.10;;
35877;SDS011;21982;49.804;24.072;2023-04-07T05:40:18;242.00;;;26.65;;
35877;SDS011;21982;49.804;24.072;2023-04-07T05:42:43;172.38;;;19.50;;
35877;SDS011;21982;49.804;24.072;2023-04-07T05:45:08;131.13;;;15.55;;
35877;SDS011;21982;49.804;24.072;2023-04-07T05:47:34;191.38;;;21.38;;
35877;SDS011;21982;49.804;24.072;2023-04-07T05:50:00;169.52;;;17.88;;
35877;SDS011;21982;49.804;24.072;2023-04-07T05:52:25;150.35;;;17.77;;
35877;SDS011;21982;49.804;24.072;2023-04-07T05:54:51;150.23;;;17.77;;
35877;SDS011;21982;49.804;24.072;2023-04-07T05:57:16;173.05;;;18.08;;
35877;SDS011;21982;49.804;24.072;2023-04-07T05:59:42;124.63;;;17.73;;
35877;SDS011;21982;49.804;24.072;2023-04-07T06:02:07;74.68;;;14.00;;
35877;SDS011;21982;49.804;24.072;2023-04-07T06:04:32;161.38;;;19.88;;
35877;SDS011;21982;49.804;24.072;2023-04-07T06:06:59;133.48;;;17.98;;
35877;SDS011;21982;49.804;24.072;2023-04-07T06:09:25;106.57;;;16.23;;
35877;SDS011;21982;49.804;24.072;2023-04-07T06:11:51;143.40;;;19.95;;
35877;SDS011;21982;49.804;24.072;2023-04-07T06:14:16;97.45;;;14.38;;
35877;SDS011;21982;49.804;24.072;2023-04-07T06:16:42;75.75;;;14.48;;
35877;SDS011;21982;49.804;24.072;2023-04-07T06:19:07;81.88;;;14.73;;
35877;SDS011;21982;49.804;24.072;2023-04-07T06:21:33;101.57;;;15.80;;
35877;SDS011;21982;49.804;24.072;2023-04-07T06:23:58;90.15;;;13.85;;
35877;SDS011;21982;49.804;24.072;2023-04-07T06:26:25;110.45;;;16.58;;
35877;SDS011;21982;49.804;24.072;2023-04-07T06:28:51;74.88;;;14.20;;
35877;SDS011;21982;49.804;24.072;2023-04-07T06:31:17;94.70;;;14.52;;
35877;SDS011;21982;49.804;24.072;2023-04-07T06:33:43;93.68;;;14.30;;
35877;SDS011;21982;49.804;24.072;2023-04-07T06:36:09;84.40;;;13.98;;
35877;SDS011;21982;49.804;24.072;2023-04-07T06:38:36;87.20;;;15.38;;
35877;SDS011;21982;49.804;24.072;2023-04-07T06:41:02;102.95;;;16.08;;
35877;SDS011;21982;49.804;24.072;2023-04-07T06:43:27;85.45;;;16.17;;
35877;SDS011;21982;49.804;24.072;2023-04-07T06:45:53;66.35;;;14.90;;
35877;SDS011;21982;49.804;24.072;2023-04-07T06:48:19;60.75;;;14.60;;
35877;SDS011;21982;49.804;24.072;2023-04-07T06:50:54;76.28;;;17.42;;
35877;SDS011;21982;49.804;24.072;2023-04-07T06:53:20;67.97;;;17.40;;
35877;SDS011;21982;49.804;24.072;2023-04-07T06:55:45;61.90;;;15.20;;
35877;SDS011;21982;49.804;24.072;2023-04-07T06:58:15;72.93;;;15.02;;
35877;SDS011;21982;49.804;24.072;2023-04-07T07:00:41;50.78;;;14.00;;
35877;SDS011;21982;49.804;24.072;2023-04-07T07:03:07;65.70;;;23.40;;
35877;SDS011;21982;49.804;24.072;2023-04-07T07:05:32;53.08;;;17.63;;
35877;SDS011;21982;49.804;24.072;2023-04-07T07:07:57;51.10;;;23.15;;
35877;SDS011;21982;49.804;24.072;2023-04-07T07:10:23;65.55;;;23.15;;
35877;SDS011;21982;49.804;24.072;2023-04-07T07:12:49;77.40;;;20.33;;
35877;SDS011;21982;49.804;24.072;2023-04-07T07:15:15;60.13;;;21.02;;
35877;SDS011;21982;49.804;24.072;2023-04-07T07:17:41;64.03;;;19.08;;
35877;SDS011;21982;49.804;24.072;2023-04-07T07:20:06;62.80;;;17.98;;
35877;SDS011;21982;49.804;24.072;2023-04-07T07:22:32;70.35;;;18.88;;
35877;SDS011;21982;49.804;24.072;2023-04-07T07:24:58;55.75;;;17.73;;
35877;SDS011;21982;49.804;24.072;2023-04-07T07:27:23;59.97;;;17.45;;
35877;SDS011;21982;49.804;24.072;2023-04-07T07:29:48;82.97;;;18.55;;
35877;SDS011;21982;49.804;24.072;2023-04-07T07:32:14;73.00;;;16.15;;
35877;SDS011;21982;49.804;24.072;2023-04-07T07:34:40;39.22;;;14.00;;
35877;SDS011;21982;49.804;24.072;2023-04-07T07:37:05;32.30;;;13.80;;
35877;SDS011;21982;49.804;24.072;2023-04-07T07:39:30;39.15;;;13.52;;
35877;SDS011;21982;49.804;24.072;2023-04-07T07:41:56;31.58;;;14.98;;
35877;SDS011;21982;49.804;24.072;2023-04-07T07:44:21;31.05;;;13.43;;
35877;SDS011;21982;49.804;24.072;2023-04-07T07:46:48;49.20;;;15.20;;
35877;SDS011;21982;49.804;24.072;2023-04-07T07:49:13;30.75;;;12.60;;
35877;SDS011;21982;49.804;24.072;2023-04-07T07:51:39;44.28;;;16.40;;
35877;SDS011;21982;49.804;24.072;2023-04-07T07:54:05;34.58;;;15.52;;
35877;SDS011;21982;49.804;24.072;2023-04-07T07:56:30;37.60;;;17.65;;
35877;SDS011;21982;49.804;24.072;2023-04-07T07:58:56;28.42;;;14.10;;
35877;SDS011;21982;49.804;24.072;2023-04-07T08:01:21;27.90;;;14.18;;
35877;SDS011;21982;49.804;24.072;2023-04-07T08:03:47;32.47;;;14.63;;
35877;SDS011;21982;49.804;24.072;2023-04-07T08:06:13;29.85;;;15.25;;
35877;SDS011;21982;49.804;24.072;2023-04-07T08:08:39;21.90;;;10.38;;
35877;SDS011;21982;49.804;24.072;2023-04-07T08:11:04;25.50;;;10.75;;
35877;SDS011;21982;49.804;24.072;2023-04-07T08:13:30;19.92;;;8.82;;
35877;SDS011;21982;49.804;24.072;2023-04-07T08:15:55;25.38;;;9.07;;
35877;SDS011;21982;49.804;24.072;2023-04-07T08:18:21;16.98;;;8.43;;
35877;SDS011;21982;49.804;24.072;2023-04-07T08:20:47;21.05;;;11.27;;
35877;SDS011;21982;49.804;24.072;2023-04-07T08:23:12;18.48;;;11.13;;
35877;SDS011;21982;49.804;24.072;2023-04-07T08:25:37;17.67;;;10.65;;
35877;SDS011;21982;49.804;24.072;2023-04-07T08:28:05;16.10;;;9.00;;
35877;SDS011;21982;49.804;24.072;2023-04-07T08:30:31;13.00;;;7.22;;
35877;SDS011;21982;49.804;24.072;2023-04-07T08:32:56;12.50;;;7.13;;
35877;SDS011;21982;49.804;24.072;2023-04-07T08:35:22;10.50;;;6.55;;
35877;SDS011;21982;49.804;24.072;2023-04-07T08:37:47;11.85;;;7.30;;
35877;SDS011;21982;49.804;24.072;2023-04-07T08:40:14;12.02;;;7.07;;
35877;SDS011;21982;49.804;24.072;2023-04-07T08:42:41;11.98;;;4.80;;
35877;SDS011;21982;49.804;24.072;2023-04-07T08:45:09;10.98;;;6.35;;
35877;SDS011;21982;49.804;24.072;2023-04-07T08:47:35;12.18;;;6.50;;
35877;SDS011;21982;49.804;24.072;2023-04-07T08:50:02;14.23;;;6.10;;
35877;SDS011;21982;49.804;24.072;2023-04-07T08:52:33;13.57;;;7.07;;
35877;SDS011;21982;49.804;24.072;2023-04-07T08:55:00;13.95;;;6.07;;
35877;SDS011;21982;49.804;24.072;2023-04-07T08:57:30;9.68;;;5.50;;
35877;SDS011;21982;49.804;24.072;2023-04-07T08:59:57;9.93;;;5.00;;
35877;SDS011;21982;49.804;24.072;2023-04-07T09:02:26;10.00;;;5.40;;
35877;SDS011;21982;49.804;24.072;2023-04-07T09:04:52;12.82;;;5.82;;
35877;SDS011;21982;49.804;24.072;2023-04-07T09:07:17;12.15;;;6.30;;
35877;SDS011;21982;49.804;24.072;2023-04-07T09:09:43;17.77;;;10.07;;
35877;SDS011;21982;49.804;24.072;2023-04-07T09:12:08;12.10;;;6.32;;
35877;SDS011;21982;49.804;24.072;2023-04-07T09:14:33;13.75;;;7.15;;
35877;SDS011;21982;49.804;24.072;2023-04-07T09:16:59;12.07;;;7.35;;
35877;SDS011;21982;49.804;24.072;2023-04-07T09:19:25;10.13;;;5.22;;
35877;SDS011;21982;49.804;24.072;2023-04-07T09:21:51;10.27;;;5.03;;
35877;SDS011;21982;49.804;24.072;2023-04-07T09:26:50;11.30;;;7.00;;
35877;SDS011;21982;49.804;24.072;2023-04-07T09:29:32;11.52;;;7.03;;
35877;SDS011;21982;49.804;24.072;2023-04-07T09:31:57;9.82;;;5.50;;
35877;SDS011;21982;49.804;24.072;2023-04-07T09:34:30;9.00;;;4.60;;
35877;SDS011;21982;49.804;24.072;2023-04-07T09:36:57;9.40;;;5.05;;
35877;SDS011;21982;49.804;24.072;2023-04-07T09:39:23;8.90;;;6.53;;
35877;SDS011;21982;49.804;24.072;2023-04-07T09:41:49;13.13;;;7.70;;
35877;SDS011;21982;49.804;24.072;2023-04-07T09:44:16;9.68;;;5.75;;
35877;SDS011;21982;49.804;24.072;2023-04-07T09:47:15;9.45;;;4.75;;
35877;SDS011;21982;49.804;24.072;2023-04-07T09:49:34;6.53;;;3.42;;
35877;SDS011;21982;49.804;24.072;2023-04-07T09:52:13;11.57;;;7.35;;
35877;SDS011;21982;49.804;24.072;2023-04-07T09:54:39;9.35;;;5.07;;
35877;SDS011;21982;49.804;24.072;2023-04-07T09:57:09;10.40;;;5.72;;
35877;SDS011;21982;49.804;24.072;2023-04-07T09:59:36;8.65;;;4.13;;
35877;SDS011;21982;49.804;24.072;2023-04-07T10:02:04;9.52;;;4.57;;
35877;SDS011;21982;49.804;24.072;2023-04-07T10:04:30;9.00;;;4.10;;
35877;SDS011;21982;49.804;24.072;2023-04-07T10:06:56;10.38;;;6.57;;
35877;SDS011;21982;49.804;24.072;2023-04-07T10:09:23;8.10;;;5.05;;
35877;SDS011;21982;49.804;24.072;2023-04-07T10:11:50;9.02;;;4.90;;
35877;SDS011;21982;49.804;24.072;2023-04-07T10:14:17;8.05;;;4.25;;
35877;SDS011;21982;49.804;24.072;2023-04-07T10:16:43;10.50;;;4.85;;
35877;SDS011;21982;49.804;24.072;2023-04-07T10:19:10;8.90;;;4.72;;
35877;SDS011;21982;49.804;24.072;2023-04-07T10:21:38;9.02;;;5.40;;
35877;SDS011;21982;49.804;24.072;2023-04-07T10:26:50;9.38;;;4.25;;
35877;SDS011;21982;49.804;24.072;2023-04-07T10:29:18;9.35;;;5.10;;
35877;SDS011;21982;49.804;24.072;2023-04-07T10:31:45;10.25;;;5.43;;
35877;SDS011;21982;49.804;24.072;2023-04-07T10:34:11;9.77;;;5.75;;
35877;SDS011;21982;49.804;24.072;2023-04-07T10:37:07;10.27;;;5.65;;
35877;SDS011;21982;49.804;24.072;2023-04-07T10:39:38;11.50;;;7.32;;
35877;SDS011;21982;49.804;24.072;2023-04-07T10:42:04;12.20;;;6.35;;
35877;SDS011;21982;49.804;24.072;2023-04-07T10:47:10;17.17;;;8.52;;
35877;SDS011;21982;49.804;24.072;2023-04-07T10:49:38;12.88;;;7.63;;
35877;SDS011;21982;49.804;24.072;2023-04-07T10:54:38;10.75;;;6.07;;
35877;SDS011;21982;49.804;24.072;2023-04-07T10:59:29;11.13;;;6.72;;
35877;SDS011;21982;49.804;24.072;2023-04-07T11:02:55;13.43;;;8.15;;
35877;SDS011;21982;49.804;24.072;2023-04-07T11:04:49;11.73;;;6.05;;
35877;SDS011;21982;49.804;24.072;2023-04-07T11:07:15;12.48;;;7.10;;
35877;SDS011;21982;49.804;24.072;2023-04-07T11:09:40;11.43;;;6.80;;
35877;SDS011;21982;49.804;24.072;2023-04-07T11:12:06;14.05;;;7.60;;
35877;SDS011;21982;49.804;24.072;2023-04-07T11:14:32;12.05;;;7.78;;
35877;SDS011;21982;49.804;24.072;2023-04-07T11:17:07;13.93;;;8.57;;
35877;SDS011;21982;49.804;24.072;2023-04-07T11:19:59;11.50;;;6.85;;
35877;SDS011;21982;49.804;24.072;2023-04-07T11:22:24;11.00;;;6.03;;
35877;SDS011;21982;49.804;24.072;2023-04-07T11:24:49;14.57;;;6.75;;
35877;SDS011;21982;49.804;24.072;2023-04-07T11:27:15;12.55;;;6.88;;
35877;SDS011;21982;49.804;24.072;2023-04-07T11:29:40;13.38;;;6.75;;
35877;SDS011;21982;49.804;24.072;2023-04-07T11:32:06;12.85;;;7.05;;
35877;SDS011;21982;49.804;24.072;2023-04-07T11:34:32;13.48;;;7.53;;
35877;SDS011;21982;49.804;24.072;2023-04-07T11:39:50;13.20;;;6.78;;
35877;SDS011;21982;49.804;24.072;2023-04-07T11:42:37;10.38;;;6.00;;
35877;SDS011;21982;49.804;24.072;2023-04-07T11:45:05;14.27;;;7.82;;
35877;SDS011;21982;49.804;24.072;2023-04-07T11:47:39;14.38;;;5.95;;
35877;SDS011;21982;49.804;24.072;2023-04-07T11:50:06;11.25;;;5.88;;
35877;SDS011;21982;49.804;24.072;2023-04-07T11:52:41;10.93;;;5.80;;
35877;SDS011;21982;49.804;24.072;2023-04-07T11:55:21;14.07;;;7.00;;
35877;SDS011;21982;49.804;24.072;2023-04-07T11:57:48;9.50;;;6.28;;
35877;SDS011;21982;49.804;24.072;2023-04-07T12:00:18;8.75;;;5.30;;
35877;SDS011;21982;49.804;24.072;2023-04-07T12:02:44;7.70;;;4.50;;
35877;SDS011;21982;49.804;24.072;2023-04-07T12:05:10;11.98;;;6.68;;
35877;SDS011;21982;49.804;24.072;2023-04-07T12:07:36;11.20;;;5.60;;
35877;SDS011;21982;49.804;24.072;2023-04-07T12:10:21;9.05;;;5.43;;
35877;SDS011;21982;49.804;24.072;2023-04-07T12:12:48;11.02;;;5.57;;
35877;SDS011;21982;49.804;24.072;2023-04-07T12:15:13;9.43;;;4.85;;
35877;SDS011;21982;49.804;24.072;2023-04-07T12:17:43;8.45;;;4.82;;
35877;SDS011;21982;49.804;24.072;2023-04-07T12:20:10;9.02;;;4.95;;
35877;SDS011;21982;49.804;24.072;2023-04-07T12:22:36;6.75;;;3.88;;
35877;SDS011;21982;49.804;24.072;2023-04-07T12:25:01;7.60;;;4.10;;
35877;SDS011;21982;49.804;24.072;2023-04-07T12:27:27;8.57;;;4.78;;
35877;SDS011;21982;49.804;24.072;2023-04-07T12:29:52;9.18;;;4.65;;
35877;SDS011;21982;49.804;24.072;2023-04-07T12:32:17;9.27;;;6.30;;
35877;SDS011;21982;49.804;24.072;2023-04-07T12:34:43;9.68;;;5.47;;
35877;SDS011;21982;49.804;24.072;2023-04-07T12:37:08;9.27;;;5.38;;
35877;SDS011;21982;49.804;24.072;2023-04-07T12:39:34;11.18;;;6.63;;
35877;SDS011;21982;49.804;24.072;2023-04-07T12:41:59;13.60;;;7.40;;
35877;SDS011;21982;49.804;24.072;2023-04-07T12:44:24;14.00;;;7.57;;
35877;SDS011;21982;49.804;24.072;2023-04-07T12:46:50;13.15;;;7.47;;
35877;SDS011;21982;49.804;24.072;2023-04-07T12:49:16;14.27;;;7.28;;
35877;SDS011;21982;49.804;24.072;2023-04-07T12:51:41;15.75;;;7.45;;
35877;SDS011;21982;49.804;24.072;2023-04-07T12:54:07;15.88;;;8.55;;
35877;SDS011;21982;49.804;24.072;2023-04-07T12:56:32;12.10;;;6.28;;
35877;SDS011;21982;49.804;24.072;2023-04-07T12:58:57;11.40;;;6.22;;
35877;SDS011;21982;49.804;24.072;2023-04-07T13:01:23;12.88;;;7.35;;
35877;SDS011;21982;49.804;24.072;2023-04-07T13:03:49;12.77;;;6.97;;
35877;SDS011;21982;49.804;24.072;2023-04-07T13:06:14;12.43;;;6.72;;
35877;SDS011;21982;49.804;24.072;2023-04-07T13:08:41;11.93;;;6.93;;
35877;SDS011;21982;49.804;24.072;2023-04-07T13:11:06;11.43;;;6.05;;
35877;SDS011;21982;49.804;24.072;2023-04-07T13:13:32;13.40;;;7.07;;
35877;SDS011;21982;49.804;24.072;2023-04-07T13:15:59;12.55;;;6.25;;
35877;SDS011;21982;49.804;24.072;2023-04-07T13:18:24;10.70;;;6.22;;
35877;SDS011;21982;49.804;24.072;2023-04-07T13:20:50;14.52;;;7.80;;
35877;SDS011;21982;49.804;24.072;2023-04-07T13:23:15;12.88;;;7.20;;
35877;SDS011;21982;49.804;24.072;2023-04-07T13:25:41;14.68;;;6.90;;
35877;SDS011;21982;49.804;24.072;2023-04-07T13:28:06;12.57;;;6.93;;
35877;SDS011;21982;49.804;24.072;2023-04-07T13:30:32;15.02;;;7.00;;
35877;SDS011;21982;49.804;24.072;2023-04-07T13:32:57;13.63;;;7.15;;
35877;SDS011;21982;49.804;24.072;2023-04-07T13:35:22;16.58;;;8.32;;
35877;SDS011;21982;49.804;24.072;2023-04-07T13:37:48;15.52;;;7.50;;
35877;SDS011;21982;49.804;24.072;2023-04-07T13:40:14;11.88;;;6.38;;
35877;SDS011;21982;49.804;24.072;2023-04-07T13:42:39;13.57;;;7.25;;
35877;SDS011;21982;49.804;24.072;2023-04-07T13:45:05;12.57;;;7.35;;
35877;SDS011;21982;49.804;24.072;2023-04-07T13:47:37;14.88;;;7.50;;
35877;SDS011;21982;49.804;24.072;2023-04-07T13:50:02;14.30;;;7.55;;
35877;SDS011;21982;49.804;24.072;2023-04-07T13:52:28;12.90;;;7.03;;
35877;SDS011;21982;49.804;24.072;2023-04-07T13:54:54;12.10;;;6.85;;
35877;SDS011;21982;49.804;24.072;2023-04-07T13:57:21;15.80;;;7.00;;
35877;SDS011;21982;49.804;24.072;2023-04-07T13:59:49;15.02;;;7.95;;
35877;SDS011;21982;49.804;24.072;2023-04-07T14:02:18;18.38;;;9.77;;
35877;SDS011;21982;49.804;24.072;2023-04-07T14:04:44;15.18;;;7.97;;
35877;SDS011;21982;49.804;24.072;2023-04-07T14:07:09;18.27;;;8.02;;
35877;SDS011;21982;49.804;24.072;2023-04-07T14:09:35;19.55;;;8.25;;
35877;SDS011;21982;49.804;24.072;2023-04-07T14:12:01;17.65;;;8.52;;
35877;SDS011;21982;49.804;24.072;2023-04-07T14:14:27;24.65;;;9.15;;
35877;SDS011;21982;49.804;24.072;2023-04-07T14:16:52;16.92;;;8.75;;
35877;SDS011;21982;49.804;24.072;2023-04-07T14:19:22;25.05;;;8.90;;
35877;SDS011;21982;49.804;24.072;2023-04-07T14:21:48;25.67;;;10.75;;
35877;SDS011;21982;49.804;24.072;2023-04-07T14:24:16;23.45;;;11.77;;
35877;SDS011;21982;49.804;24.072;2023-04-07T14:26:42;27.33;;;9.98;;
35877;SDS011;21982;49.804;24.072;2023-04-07T14:29:08;29.17;;;11.43;;
35877;SDS011;21982;49.804;24.072;2023-04-07T14:31:34;26.60;;;10.38;;